Time;durP1;ratioP1;P1;durP2;ratioP2;P2;SDS_P1;SDS_P2;PMS_P1;PMS_P2;Temp;Humidity;BMP_temperature;BMP_pressure;BME280_temperature;BME280_humidity;BME280_pressure;Samples;Min_cycle;Max_cycle;Signal;HPM_P1;HPM_P2
2022/09/26 00:00:07;;;;;;;9.85;6.00;;;;;;;10.69;100.00;101053.72;5255646;28;20027;-73
2022/09/26 00:02:38;;;;;;;15.38;6.10;;;;;;;10.74;100.00;101054.09;5265385;28;20501;-72
2022/09/26 00:05:10;;;;;;;10.40;5.75;;;;;;;10.74;100.00;101054.91;5265569;28;20020;-72
2022/09/26 00:07:40;;;;;;;10.75;5.10;;;;;;;10.80;100.00;101043.56;5281105;28;20031;-72
2022/09/26 00:10:11;;;;;;;13.60;5.10;;;;;;;10.81;100.00;101039.88;5288258;28;20504;-72
2022/09/26 00:12:41;;;;;;;10.60;5.57;;;;;;;10.84;100.00;101046.75;5274507;28;20165;-72
2022/09/26 00:15:11;;;;;;;7.80;5.13;;;;;;;10.84;100.00;101039.56;5287830;27;20019;-72
2022/09/26 00:17:42;;;;;;;11.68;5.22;;;;;;;10.85;100.00;101041.22;5274318;28;20039;-72
2022/09/26 00:20:12;;;;;;;9.88;5.10;;;;;;;10.87;100.00;101033.00;5287947;28;20069;-72
2022/09/26 00:22:43;;;;;;;9.63;4.78;;;;;;;10.88;100.00;101032.84;5287636;28;20032;-72
2022/09/26 00:25:13;;;;;;;10.57;4.57;;;;;;;10.87;100.00;101027.63;5275511;27;20116;-72
2022/09/26 00:27:44;;;;;;;12.23;4.97;;;;;;;10.87;100.00;101020.41;5265796;28;20020;-72
2022/09/26 00:30:14;;;;;;;7.82;4.03;;;;;;;10.85;100.00;101013.56;5266408;28;20028;-72
2022/09/26 00:32:45;;;;;;;7.43;4.32;;;;;;;10.84;100.00;101012.72;5279867;28;20051;-72
2022/09/26 00:35:16;;;;;;;7.90;3.80;;;;;;;10.83;100.00;101010.19;5272724;28;20038;-72
2022/09/26 00:37:46;;;;;;;11.20;3.50;;;;;;;10.83;100.00;101010.19;5275444;28;20016;-73
2022/09/26 00:40:17;;;;;;;9.82;3.45;;;;;;;10.82;100.00;101009.34;5270136;28;20114;-73
2022/09/26 00:42:47;;;;;;;8.23;3.72;;;;;;;10.83;100.00;100999.44;5266317;28;20107;-72
2022/09/26 00:45:18;;;;;;;15.27;3.80;;;;;;;10.81;100.00;100999.63;5279263;28;20335;-72
2022/09/26 00:47:51;;;;;;;7.35;3.75;;;;;;;10.85;100.00;100992.91;5264757;28;20085;-72
2022/09/26 00:50:29;;;;;;;7.18;3.22;;;;;;;10.83;100.00;100988.72;5265701;28;20055;-72
2022/09/26 00:53:05;;;;;;;9.60;3.40;;;;;;;10.84;100.00;100985.00;5265795;28;20035;-73
2022/09/26 00:55:41;;;;;;;7.47;2.83;;;;;;;10.85;100.00;100981.34;5273786;28;20027;-72
2022/09/26 00:58:18;;;;;;;6.68;3.30;;;;;;;10.85;100.00;100976.81;5269812;28;20028;-72
2022/09/26 01:00:49;;;;;;;7.75;3.05;;;;;;;10.83;100.00;100967.22;5278019;28;20033;-72
2022/09/26 01:03:21;;;;;;;8.13;2.72;;;;;;;10.81;100.00;100975.47;5272347;28;20088;-72
2022/09/26 01:05:52;;;;;;;10.68;3.35;;;;;;;10.83;100.00;100967.22;5273281;28;20504;-72
2022/09/26 01:08:44;;;;;;;10.75;3.30;;;;;;;10.81;100.00;100958.53;5286809;28;20559;-72
2022/09/26 01:11:14;;;;;;;11.93;3.30;;;;;;;10.80;100.00;100955.00;5269779;28;20024;-73
2022/09/26 01:13:46;;;;;;;9.25;3.65;;;;;;;10.79;100.00;100949.78;5277257;28;20047;-72
2022/09/26 01:16:17;;;;;;;10.25;3.83;;;;;;;10.80;100.00;100946.94;5267135;28;20019;-72
2022/09/26 01:18:48;;;;;;;10.35;3.47;;;;;;;10.78;100.00;100948.94;5266208;28;20115;-72
2022/09/26 01:21:44;;;;;;;9.43;2.92;;;;;;;10.76;100.00;100945.59;5279653;28;20020;-72
2022/09/26 01:24:46;;;;;;;10.73;2.70;;;;;;;10.71;100.00;100939.88;5268297;28;20565;-72
2022/09/26 01:27:35;;;;;;;9.38;3.17;;;;;;;10.70;100.00;100929.31;5272202;28;20390;-71
2022/09/26 01:30:10;;;;;;;14.38;4.45;;;;;;;10.66;100.00;100923.44;5277424;28;20488;-72
2022/09/26 01:33:01;;;;;;;9.38;3.63;;;;;;;10.65;100.00;100918.25;5279979;28;20084;-72
2022/09/26 01:35:50;;;;;;;10.02;3.67;;;;;;;10.64;100.00;100909.34;5270422;28;20024;-72
2022/09/26 01:38:21;;;;;;;9.77;3.47;;;;;;;10.63;100.00;100908.50;5258167;28;20043;-72
2022/09/26 01:41:10;;;;;;;8.68;3.42;;;;;;;10.61;100.00;100898.94;5265125;28;20433;-72
2022/09/26 01:43:49;;;;;;;10.43;3.13;;;;;;;10.59;100.00;100890.22;5265469;28;20028;-72
2022/09/26 01:46:39;;;;;;;8.50;3.38;;;;;;;10.61;100.00;100885.53;5277573;28;20053;-73
2022/09/26 01:49:48;;;;;;;11.23;3.20;;;;;;;10.61;100.00;100877.50;5263944;28;20320;-72
2022/09/26 01:52:33;;;;;;;5.85;2.72;;;;;;;10.59;100.00;100874.13;5264708;28;20492;-72
2022/09/26 01:55:26;;;;;;;7.80;2.90;;;;;;;10.56;100.00;100861.88;5285532;28;20028;-73
2022/09/26 01:58:08;;;;;;;8.32;3.15;;;;;;;10.54;100.00;100861.22;5271836;28;20028;-72
2022/09/26 02:00:47;;;;;;;7.95;3.10;;;;;;;10.53;100.00;100851.47;5267468;28;20050;-71
2022/09/26 02:03:26;;;;;;;15.93;3.22;;;;;;;10.49;100.00;100839.44;5272004;28;20028;-73
2022/09/26 02:06:02;;;;;;;9.30;2.53;;;;;;;10.49;100.00;100830.50;5284534;28;20512;-73
2022/09/26 02:08:53;;;;;;;7.72;2.42;;;;;;;10.48;100.00;100810.91;5274119;28;20062;-73
2022/09/26 02:11:24;;;;;;;8.60;2.67;;;;;;;10.51;100.00;100812.44;5290108;28;20098;-73
2022/09/26 02:14:14;;;;;;;8.10;2.63;;;;;;;10.53;100.00;100805.03;5290381;28;20024;-73
2022/09/26 02:16:48;;;;;;;7.38;2.45;;;;;;;10.49;100.00;100804.56;5281243;28;20020;-73
2022/09/26 02:19:40;;;;;;;10.88;2.85;;;;;;;10.51;100.00;100807.91;5282952;28;20031;-72
2022/09/26 02:22:11;;;;;;;9.20;2.67;;;;;;;10.53;100.00;100805.03;5281911;28;20063;-73
2022/09/26 02:24:41;;;;;;;9.25;2.40;;;;;;;10.51;100.00;100799.84;5281576;28;20160;-73
2022/09/26 02:27:12;;;;;;;8.18;2.20;;;;;;;10.54;100.00;100798.66;5263789;28;20028;-72
2022/09/26 02:29:43;;;;;;;6.53;1.95;;;;;;;10.55;100.00;100797.69;5278926;28;20088;-73
2022/09/26 02:32:17;;;;;;;8.57;2.33;;;;;;;10.55;100.00;100795.84;5276090;28;20027;-71
2022/09/26 02:34:49;;;;;;;9.23;2.55;;;;;;;10.54;100.00;100796.84;5277569;28;20085;-72
2022/09/26 02:37:20;;;;;;;5.20;2.08;;;;;;;10.55;100.00;100787.78;5268344;28;20027;-71
2022/09/26 02:39:52;;;;;;;5.38;2.33;;;;;;;10.52;100.00;100782.75;5281509;28;20396;-71
2022/09/26 02:42:32;;;;;;;5.88;2.88;;;;;;;10.57;100.00;100787.63;5283959;28;20027;-71
2022/09/26 02:45:27;;;;;;;5.68;2.10;;;;;;;10.55;100.00;100778.91;5282967;28;20050;-70
2022/09/26 02:48:25;;;;;;;5.60;2.30;;;;;;;10.55;100.00;100774.38;5290020;28;20114;-71
2022/09/26 02:51:24;;;;;;;8.75;2.70;;;;;;;10.56;100.00;100770.69;5279961;28;20527;-70
2022/09/26 02:54:14;;;;;;;6.60;2.33;;;;;;;10.59;100.00;100761.44;5255659;28;20031;-71
2022/09/26 02:57:05;;;;;;;10.13;3.20;;;;;;;10.59;100.00;100756.94;5282146;28;20111;-70
2022/09/26 02:59:49;;;;;;;13.13;3.47;;;;;;;10.59;100.00;100735.47;5256321;28;20074;-71
2022/09/26 03:02:42;;;;;;;5.63;2.00;;;;;;;10.63;100.00;100742.16;5270504;28;20064;-71
2022/09/26 03:05:17;;;;;;;9.07;2.42;;;;;;;10.64;100.00;100729.59;5254936;28;20103;-71
2022/09/26 03:07:55;;;;;;;7.57;2.83;;;;;;;10.65;100.00;100722.41;5284549;28;20030;-72
2022/09/26 03:10:29;;;;;;;11.65;3.17;;;;;;;10.66;100.00;100721.38;5289416;28;20035;-72
2022/09/26 03:13:04;;;;;;;8.20;2.42;;;;;;;10.66;100.00;100716.84;5289426;28;20012;-72
2022/09/26 03:15:37;;;;;;;6.80;3.13;;;;;;;10.67;100.00;100720.38;5288679;28;20143;-71
2022/09/26 03:18:13;;;;;;;7.28;3.00;;;;;;;10.69;100.00;100699.56;5275557;28;20022;-71
2022/09/26 03:20:44;;;;;;;8.52;2.78;;;;;;;10.69;100.00;100691.50;5288383;28;20023;-71
2022/09/26 03:23:14;;;;;;;7.75;2.83;;;;;;;10.68;100.00;100689.84;5279247;28;20390;-71
2022/09/26 03:26:07;;;;;;;11.68;2.70;;;;;;;10.68;100.00;100673.75;5284217;28;20385;-71
2022/09/26 03:28:38;;;;;;;7.18;2.60;;;;;;;10.66;100.00;100655.16;5277122;28;20054;-71
2022/09/26 03:31:10;;;;;;;10.38;2.33;;;;;;;10.66;100.00;100663.19;5275453;28;20024;-70
2022/09/26 03:33:40;;;;;;;10.23;2.88;;;;;;;10.67;100.00;100654.13;5269233;28;20016;-70
2022/09/26 03:36:11;;;;;;;12.68;2.53;;;;;;;10.68;100.00;100652.28;5270533;28;20046;-71
2022/09/26 03:38:41;;;;;;;8.95;2.60;;;;;;;10.68;100.00;100646.91;5266804;28;20507;-71
2022/09/26 03:41:11;;;;;;;5.93;2.75;;;;;;;10.68;100.00;100650.44;5278292;28;20031;-71
2022/09/26 03:43:42;;;;;;;6.82;2.55;;;;;;;10.67;100.00;100646.09;5288414;28;20107;-71
2022/09/26 03:46:14;;;;;;;5.75;2.20;;;;;;;10.65;100.00;100642.75;5276827;28;20028;-71
2022/09/26 03:48:45;;;;;;;14.95;2.92;;;;;;;10.63;100.00;100642.91;5273561;28;20046;-70
2022/09/26 03:51:16;;;;;;;10.27;2.17;;;;;;;10.64;100.00;100638.38;5289079;28;20062;-70
2022/09/26 03:53:46;;;;;;;4.22;2.20;;;;;;;10.63;100.00;100631.34;5274868;28;20073;-70
2022/09/26 03:56:19;;;;;;;9.15;2.67;;;;;;;10.63;100.00;100634.84;5273316;28;20039;-70
2022/09/26 03:58:49;;;;;;;8.52;2.47;;;;;;;10.61;100.00;100626.16;5259521;28;20025;-70
2022/09/26 04:01:21;;;;;;;8.75;2.90;;;;;;;10.61;100.00;100611.91;5276391;28;20072;-70
2022/09/26 04:03:51;;;;;;;9.77;2.90;;;;;;;10.59;100.00;100604.03;5259788;28;20070;-71
2022/09/26 04:06:23;;;;;;;9.13;3.00;;;;;;;10.58;100.00;100605.03;5284200;28;20059;-71
2022/09/26 04:08:53;;;;;;;7.57;3.20;;;;;;;10.54;100.00;100597.50;5288585;28;20121;-71
2022/09/26 04:11:24;;;;;;;11.82;2.80;;;;;;;10.54;100.00;100587.63;5270371;28;20060;-72
2022/09/26 04:13:54;;;;;;;12.07;3.50;;;;;;;10.52;100.00;100581.56;5267787;28;20038;-72
2022/09/26 04:16:25;;;;;;;14.35;3.78;;;;;;;10.51;100.00;100581.75;5281154;28;20427;-73
2022/09/26 04:18:57;;;;;;;12.20;4.43;;;;;;;10.48;100.00;100569.50;5282090;28;20031;-73
2022/09/26 04:21:28;;;;;;;12.55;4.05;;;;;;;10.48;100.00;100560.63;5282908;27;20026;-72
2022/09/26 04:23:58;;;;;;;11.73;4.07;;;;;;;10.50;100.00;100559.47;5269452;28;20025;-72
2022/09/26 04:26:29;;;;;;;12.52;4.78;;;;;;;10.52;100.00;100553.91;5285980;28;20055;-72
2022/09/26 04:28:59;;;;;;;14.88;5.10;;;;;;;10.51;100.00;100549.56;5280399;28;20107;-72
2022/09/26 04:31:30;;;;;;;13.88;4.90;;;;;;;10.51;100.00;100544.22;5266487;28;20020;-72
2022/09/26 04:34:00;;;;;;;15.38;4.85;;;;;;;10.54;100.00;100538.47;5271005;28;20023;-72
2022/09/26 04:36:31;;;;;;;20.15;5.50;;;;;;;10.52;100.00;100533.28;5255123;27;20016;-72
2022/09/26 04:39:02;;;;;;;14.60;4.82;;;;;;;10.50;100.00;100526.44;5278928;28;20081;-72
2022/09/26 04:41:33;;;;;;;16.85;5.03;;;;;;;10.50;100.00;100519.25;5280111;28;20031;-71
2022/09/26 04:44:03;;;;;;;14.13;4.70;;;;;;;10.53;100.00;100513.50;5287156;28;20072;-71
2022/09/26 04:46:34;;;;;;;17.55;5.63;;;;;;;10.53;100.00;100510.81;5287252;28;20023;-71
2022/09/26 04:49:04;;;;;;;13.88;4.88;;;;;;;10.51;100.00;100499.44;5278678;28;20110;-70
2022/09/26 04:51:35;;;;;;;12.45;4.90;;;;;;;10.50;100.00;100495.09;5268764;28;20158;-70
2022/09/26 04:54:07;;;;;;;12.43;4.95;;;;;;;10.49;100.00;100490.75;5287508;28;20536;-71
2022/09/26 04:56:37;;;;;;;14.90;3.83;;;;;;;10.45;100.00;100486.75;5283718;28;20394;-71
2022/09/26 04:59:08;;;;;;;14.35;4.75;;;;;;;10.44;100.00;100485.06;5256706;28;20025;-70
2022/09/26 05:01:38;;;;;;;15.50;3.65;;;;;;;10.41;100.00;100473.84;5269081;28;20456;-71
2022/09/26 05:04:09;;;;;;;19.88;5.03;;;;;;;10.40;100.00;100472.19;5259808;28;20411;-71
2022/09/26 05:06:40;;;;;;;11.23;3.65;;;;;;;10.37;100.00;100462.63;5272574;28;20027;-70
2022/09/26 05:09:10;;;;;;;9.32;3.33;;;;;;;10.32;100.00;100455.09;5287111;28;20035;-70
2022/09/26 05:11:41;;;;;;;11.23;3.90;;;;;;;10.32;100.00;100443.53;5280080;28;20031;-70
2022/09/26 05:14:11;;;;;;;11.15;3.63;;;;;;;10.34;100.00;100445.06;5266925;28;20020;-71
2022/09/26 05:16:41;;;;;;;12.95;3.83;;;;;;;10.37;100.00;100438.50;5287298;28;20493;-71
2022/09/26 05:19:12;;;;;;;11.57;3.80;;;;;;;10.36;100.00;100436.81;5286759;28;20024;-70
2022/09/26 05:21:42;;;;;;;11.35;4.05;;;;;;;10.37;100.00;100425.91;5287453;28;20027;-70
2022/09/26 05:27:05;;;;;;;12.20;4.20;;;;;;;10.36;100.00;100418.06;5268680;28;20031;-71
2022/09/26 05:29:36;;;;;;;9.35;3.53;;;;;;;10.36;100.00;100410.00;5262750;28;20434;-71
2022/09/26 05:32:06;;;;;;;17.08;4.40;;;;;;;10.37;100.00;100400.97;5282414;27;20077;-71
2022/09/26 05:34:36;;;;;;;12.77;3.33;;;;;;;10.41;100.00;100402.28;5278175;28;20123;-71
2022/09/26 05:37:07;;;;;;;12.70;3.85;;;;;;;10.47;100.00;100409.63;5265633;28;20112;-71
2022/09/26 05:42:26;;;;;;;6.88;2.78;;;;;;;10.55;100.00;100406.91;5272273;28;20055;-70
2022/09/26 05:45:02;;;;;;;7.55;2.65;;;;;;;10.56;100.00;100408.56;5271090;28;20501;-71
2022/09/26 05:47:34;;;;;;;5.18;2.30;;;;;;;10.58;100.00;100397.66;5274801;28;20037;-71
2022/09/26 05:50:08;;;;;;;5.30;2.50;;;;;;;10.63;100.00;100395.25;5282859;28;20085;-71
2022/09/26 05:52:39;;;;;;;8.50;2.80;;;;;;;10.68;100.00;100394.72;5265213;28;20024;-71
2022/09/26 05:55:10;;;;;;;10.50;2.70;;;;;;;10.67;100.00;100391.22;5265068;28;20081;-71
2022/09/26 05:58:08;;;;;;;5.88;2.22;;;;;;;10.69;100.00;100381.13;5277931;28;20028;-71
2022/09/26 06:00:39;;;;;;;9.43;2.42;;;;;;;10.74;100.00;100380.59;5262785;28;20044;-71
2022/09/26 06:03:10;;;;;;;5.63;2.13;;;;;;;10.74;100.00;100378.75;5270294;28;20055;-71
2022/09/26 06:05:41;;;;;;;8.88;1.98;;;;;;;10.76;100.00;100371.38;5274812;28;20024;-71
2022/09/26 06:08:12;;;;;;;5.15;1.55;;;;;;;10.75;100.00;100372.41;5270469;28;20069;-71
2022/09/26 06:10:42;;;;;;;5.75;2.10;;;;;;;10.78;100.00;100365.81;5274059;28;20024;-71
2022/09/26 06:13:14;;;;;;;6.15;2.10;;;;;;;10.79;100.00;100359.44;5284881;28;20031;-71
2022/09/26 06:15:44;;;;;;;11.32;1.90;;;;;;;10.78;100.00;100357.78;5284904;28;20039;-71
2022/09/26 06:18:14;;;;;;;4.18;1.73;;;;;;;10.80;100.00;100350.41;5278663;28;20137;-71
2022/09/26 06:20:45;;;;;;;8.35;1.90;;;;;;;10.84;100.00;100349.00;5279655;28;20484;-71
2022/09/26 06:23:16;;;;;;;4.55;2.03;;;;;;;10.87;100.00;100338.75;5285041;28;20542;-71
2022/09/26 06:25:46;;;;;;;6.03;1.67;;;;;;;10.89;100.00;100342.09;5271580;28;20027;-71
2022/09/26 06:28:17;;;;;;;6.28;1.80;;;;;;;10.89;100.00;100336.72;5262011;27;20073;-71
2022/09/26 06:30:47;;;;;;;7.20;2.30;;;;;;;10.93;100.00;100339.88;5277291;28;20315;-71
2022/09/26 06:33:18;;;;;;;5.78;2.58;;;;;;;10.95;100.00;100323.59;5276049;28;20048;-71
2022/09/26 06:36:18;;;;;;;6.85;2.28;;;;;;;11.00;100.00;100313.16;5270363;28;20020;-71
2022/09/26 06:38:49;;;;;;;7.28;2.45;;;;;;;11.02;100.00;100308.44;5277273;28;20031;-71
2022/09/26 06:41:19;;;;;;;4.22;1.42;;;;;;;11.05;100.00;100300.03;5274466;28;20031;-71
2022/09/26 06:43:50;;;;;;;5.40;1.83;;;;;;;11.08;100.00;100297.78;5283381;28;20042;-70
2022/09/26 06:46:20;;;;;;;7.57;1.88;;;;;;;11.08;100.00;100292.41;5285346;28;20027;-71
2022/09/26 06:48:51;;;;;;;3.85;2.08;;;;;;;11.09;100.00;100286.06;5285108;28;20031;-71
2022/09/26 06:51:21;;;;;;;10.15;2.47;;;;;;;11.10;100.00;100282.34;5272281;28;20486;-71
2022/09/26 06:53:52;;;;;;;5.55;2.25;;;;;;;11.10;100.00;100274.28;5251427;28;20052;-71
2022/09/26 06:56:22;;;;;;;5.13;2.15;;;;;;;11.12;100.00;100269.56;5279709;28;20030;-71
2022/09/26 06:58:53;;;;;;;5.35;2.00;;;;;;;11.13;100.00;100263.19;5273477;28;20531;-70
2022/09/26 07:01:23;;;;;;;11.02;2.40;;;;;;;11.15;100.00;100255.78;5279890;28;20038;-71
2022/09/26 07:03:54;;;;;;;5.35;2.25;;;;;;;11.20;100.00;100257.09;5264185;28;20020;-71
2022/09/26 07:06:25;;;;;;;11.27;2.15;;;;;;;11.20;100.00;100249.03;5271569;28;20034;-71
2022/09/26 07:08:56;;;;;;;12.82;2.05;;;;;;;11.24;100.00;100243.09;5289483;28;20016;-71
2022/09/26 07:11:27;;;;;;;11.10;3.83;;;;;;;11.30;100.00;100234.31;5284021;28;20371;-71
2022/09/26 07:14:00;;;;;;;7.07;2.45;;;;;;;11.31;100.00;100225.22;5267985;28;20359;-71
2022/09/26 07:16:31;;;;;;;7.93;2.25;;;;;;;11.40;100.00;100223.28;5275173;28;20042;-71
2022/09/26 07:19:01;;;;;;;5.18;2.22;;;;;;;11.45;100.00;100220.03;5274314;28;20024;-71
2022/09/26 07:21:32;;;;;;;6.18;1.92;;;;;;;11.44;100.00;100221.03;5276818;28;20473;-71
2022/09/26 07:24:03;;;;;;;10.18;1.83;;;;;;;11.47;100.00;100218.81;5275472;28;20381;-71
2022/09/26 07:26:33;;;;;;;7.43;2.30;;;;;;;11.51;100.00;100230.03;5286081;28;20438;-71
2022/09/26 07:29:04;;;;;;;6.65;2.22;;;;;;;11.47;100.00;100210.75;5284801;28;20028;-71
2022/09/26 07:31:35;;;;;;;6.68;2.17;;;;;;;11.46;100.00;100206.41;5278467;28;20024;-71
2022/09/26 07:34:07;;;;;;;7.60;2.65;;;;;;;11.43;100.00;100220.22;5281645;28;20015;-71
2022/09/26 07:36:39;;;;;;;7.53;2.38;;;;;;;11.46;100.00;100208.28;5263178;28;20032;-71
2022/09/26 07:39:09;;;;;;;8.20;2.42;;;;;;;11.46;100.00;100206.41;5286846;28;20457;-71
2022/09/26 07:41:43;;;;;;;9.00;2.22;;;;;;;11.47;100.00;100208.06;5274713;28;20030;-71
2022/09/26 07:44:14;;;;;;;5.47;1.80;;;;;;;11.54;100.00;100211.66;5275706;28;20031;-71
2022/09/26 07:52:22;;;;;;;8.57;3.00;;;;;;;11.66;100.00;100201.28;5275896;28;20522;-71
2022/09/26 07:54:52;;;;;;;6.88;1.98;;;;;;;11.70;100.00;100197.22;5274137;27;20103;-71
2022/09/26 07:57:23;;;;;;;8.20;2.38;;;;;;;11.69;100.00;100184.78;5288858;28;20092;-71
2022/09/26 07:59:53;;;;;;;5.50;2.40;;;;;;;11.74;100.00;100184.19;5259901;28;20429;-71
2022/09/26 08:02:33;;;;;;;7.47;2.15;;;;;;;11.81;100.00;100182.44;5278382;27;20025;-71
2022/09/26 08:05:04;;;;;;;11.18;2.10;;;;;;;11.85;100.00;100170.31;5284712;28;20031;-71
2022/09/26 08:07:35;;;;;;;7.00;1.98;;;;;;;11.93;100.00;100164.81;5288209;28;20019;-71
2022/09/26 08:10:07;;;;;;;12.43;2.50;;;;;;;12.03;100.00;100170.69;5287668;28;20024;-71
2022/09/26 08:12:37;;;;;;;18.67;2.70;;;;;;;12.06;100.00;100150.66;5288485;28;20020;-71
2022/09/26 08:15:08;;;;;;;8.27;2.40;;;;;;;12.04;100.00;100153.53;5287929;28;20039;-71
2022/09/26 08:17:39;;;;;;;7.07;2.17;;;;;;;12.15;100.00;100153.03;5285472;28;20114;-71
2022/09/26 08:20:10;;;;;;;5.65;2.10;;;;;;;12.13;100.00;100143.47;5267150;28;20401;-71
2022/09/26 08:22:41;;;;;;;4.88;2.10;;;;;;;12.09;100.00;100140.34;5267647;28;20261;-71
2022/09/26 08:25:11;;;;;;;7.82;2.20;;;;;;;12.23;100.00;100143.16;5278113;28;20434;-71
2022/09/26 08:27:42;;;;;;;11.85;2.33;;;;;;;12.31;100.00;100146.53;5274924;28;20053;-71
2022/09/26 08:30:13;;;;;;;9.88;2.35;;;;;;;12.29;100.00;100127.06;5276054;28;20462;-71
2022/09/26 08:32:58;;;;;;;5.50;2.55;;;;;;;12.28;100.00;100130.78;5280259;28;20043;-71
2022/09/26 08:35:37;;;;;;;9.35;2.22;;;;;;;12.24;100.00;100134.06;5271380;28;20761;-71
2022/09/26 08:38:08;;;;;;;6.55;2.97;;;;;;;12.27;100.00;100115.69;5278959;28;20601;-71
2022/09/26 08:41:08;;;;;;;13.13;2.70;;;;;;;12.21;100.00;100124.53;5273461;28;20068;-71
2022/09/26 08:43:50;;;;;;;4.30;1.98;;;;;;;12.21;100.00;100116.47;5273548;28;20030;-71
2022/09/26 08:46:35;;;;;;;7.68;2.08;;;;;;;12.19;100.00;100116.63;5274510;28;20105;-71
2022/09/26 08:49:38;;;;;;;6.45;2.20;;;;;;;12.23;100.00;100119.78;5262072;28;20027;-71
2022/09/26 08:52:46;;;;;;;9.95;2.17;;;;;;;12.22;100.00;100114.59;5280810;27;20031;-71
2022/09/26 08:55:22;;;;;;;14.57;1.98;;;;;;;12.21;100.00;100110.25;5279171;28;20024;-71
2022/09/26 08:58:11;;;;;;;9.52;2.45;;;;;;;12.30;100.00;100111.75;5280197;28;20035;-71
2022/09/26 09:00:43;;;;;;;14.93;2.70;;;;;;;12.32;100.00;100107.03;5255717;28;20373;-71
2022/09/26 09:03:25;;;;;;;5.47;2.38;;;;;;;12.34;100.00;100115.72;5268625;28;20073;-71
2022/09/26 09:06:06;;;;;;;9.18;2.22;;;;;;;12.37;100.00;100116.16;5286659;28;20051;-71
2022/09/26 09:08:47;;;;;;;11.93;2.10;;;;;;;12.40;100.00;100112.28;5278588;27;20060;-71
2022/09/26 09:11:45;;;;;;;5.40;2.40;;;;;;;12.33;100.00;100114.91;5283225;28;20019;-71
2022/09/26 09:14:31;;;;;;;7.40;1.92;;;;;;;12.11;100.00;100113.28;5286808;28;20102;-71
2022/09/26 09:17:22;;;;;;;13.30;2.97;;;;;;;12.00;100.00;100103.88;5275483;28;20035;-71
2022/09/26 09:20:22;;;;;;;9.57;2.38;;;;;;;11.89;100.00;100104.38;5265040;28;20024;-72
2022/09/26 09:23:14;;;;;;;4.00;2.05;;;;;;;11.89;100.00;100107.06;5269039;28;20095;-73
2022/09/26 09:25:59;;;;;;;8.85;3.75;;;;;;;11.80;100.00;100095.63;5278862;28;20031;-73
2022/09/26 09:28:55;;;;;;;19.15;3.60;;;;;;;11.66;100.00;100091.97;5259572;28;20091;-73
2022/09/26 09:31:31;;;;;;;6.60;2.00;;;;;;;11.61;100.00;100091.69;5272436;28;20037;-73
2022/09/26 09:34:08;;;;;;;14.27;2.90;;;;;;;11.65;100.00;100087.63;5283601;28;20107;-72
2022/09/26 09:36:44;;;;;;;8.45;2.72;;;;;;;11.66;100.00;100083.06;5257756;28;20501;-72
2022/09/26 09:39:32;;;;;;;12.43;2.90;;;;;;;11.71;100.00;100080.63;5266002;28;20128;-73
2022/09/26 09:42:16;;;;;;;15.35;3.00;;;;;;;11.66;100.00;100075.00;5265211;28;20032;-73
2022/09/26 09:44:52;;;;;;;13.30;3.50;;;;;;;11.59;100.00;100068.72;5264764;28;20024;-73
2022/09/26 09:47:26;;;;;;;6.90;3.05;;;;;;;11.65;100.00;100058.06;5272210;28;20059;-73
2022/09/26 09:49:58;;;;;;;7.30;2.75;;;;;;;11.61;100.00;100059.47;5272627;28;20058;-73
2022/09/26 09:53:05;;;;;;;13.35;3.00;;;;;;;11.71;100.00;100058.31;5286358;28;20514;-73
2022/09/26 09:56:02;;;;;;;14.60;4.40;;;;;;;11.67;100.00;100052.47;5269859;28;20420;-72
2022/09/26 09:59:05;;;;;;;11.68;2.90;;;;;;;11.85;100.00;100044.00;5260137;28;20033;-73
2022/09/26 10:01:43;;;;;;;15.93;2.78;;;;;;;11.83;100.00;100029.91;5267497;28;20080;-72
2022/09/26 10:04:43;;;;;;;9.32;2.70;;;;;;;11.89;100.00;100034.50;5257968;28;20459;-72
2022/09/26 10:07:13;;;;;;;9.30;3.45;;;;;;;11.91;100.00;100027.94;5265398;28;20030;-72
2022/09/26 10:09:44;;;;;;;8.20;2.58;;;;;;;11.84;100.00;100023.50;5278953;28;20020;-73
2022/09/26 10:12:22;;;;;;;6.68;3.38;;;;;;;11.96;100.00;100016.59;5277702;28;20019;-73
2022/09/26 10:15:01;;;;;;;5.63;2.85;;;;;;;12.01;100.00;100016.00;5285126;28;20026;-73
2022/09/26 10:17:31;;;;;;;12.05;2.88;;;;;;;11.97;100.00;100010.19;5285975;28;20030;-72
2022/09/26 10:20:02;;;;;;;9.02;3.10;;;;;;;11.91;100.00;100008.28;5286246;28;20505;-72
2022/09/26 10:22:41;;;;;;;9.77;3.05;;;;;;;11.89;100.00;100013.00;5286284;27;20026;-72
2022/09/26 10:25:20;;;;;;;9.18;2.63;;;;;;;11.89;100.00;100007.63;5284238;28;20036;-73
2022/09/26 10:27:55;;;;;;;8.32;2.80;;;;;;;11.91;100.00;100002.91;5265939;28;20031;-72
2022/09/26 10:30:31;;;;;;;11.05;2.83;;;;;;;11.87;100.00;99996.25;5284868;28;20035;-72
2022/09/26 10:33:02;;;;;;;15.73;3.30;;;;;;;11.75;100.00;100000.47;5278738;28;20102;-72
2022/09/26 10:35:41;;;;;;;6.22;3.03;;;;;;;11.84;100.00;99984.03;5273247;28;20471;-72
2022/09/26 10:38:23;;;;;;;10.48;2.67;;;;;;;11.91;100.00;99986.78;5272537;28;20034;-72
2022/09/26 10:40:58;;;;;;;7.78;3.20;;;;;;;11.83;100.00;99977.00;5255476;28;20115;-72
2022/09/26 10:43:32;;;;;;;5.90;3.00;;;;;;;11.94;100.00;99981.00;5282393;28;20106;-72
2022/09/26 10:46:09;;;;;;;9.30;3.50;;;;;;;12.02;100.00;99970.09;5278927;28;20031;-72
2022/09/26 10:48:56;;;;;;;8.63;3.08;;;;;;;11.93;100.00;99966.72;5285027;28;20115;-72
2022/09/26 10:51:34;;;;;;;11.65;3.10;;;;;;;11.91;100.00;99957.22;5283059;28;20102;-72
2022/09/26 10:54:10;;;;;;;7.65;2.80;;;;;;;11.91;100.00;99960.72;5259785;28;20030;-72
2022/09/26 10:56:44;;;;;;;;;;;;;;;11.84;100.00;99957.16;5278721;28;20031;-72
2022/09/26 10:59:17;;;;;;;11.35;2.72;;;;;;;11.83;100.00;99960.88;5277808;28;19964;-72
2022/09/26 11:01:54;;;;;;;14.85;2.65;;;;;;;11.83;100.00;99954.66;5287865;28;20022;-72
2022/09/26 11:07:32;;;;;;;8.55;2.83;;;;;;;11.81;100.00;99949.47;5289193;28;20031;-72
2022/09/26 11:10:10;;;;;;;10.43;3.25;;;;;;;11.68;100.00;99952.03;5275837;28;20088;-72
2022/09/26 11:13:24;;;;;;;9.98;3.67;;;;;;;11.82;100.00;99950.31;5287618;28;20011;-72
2022/09/26 11:16:06;;;;;;;10.23;3.03;;;;;;;11.83;100.00;99955.50;5268965;28;20470;-73
2022/09/26 11:18:58;;;;;;;9.38;3.30;;;;;;;11.88;100.00;99957.59;5289377;28;20062;-72
2022/09/26 11:21:32;;;;;;;8.68;4.03;;;;;;;11.88;100.00;99946.84;5289455;28;20034;-72
2022/09/26 11:24:14;;;;;;;5.22;2.70;;;;;;;11.85;100.00;99939.19;5289309;28;20492;-71
2022/09/26 11:27:00;;;;;;;6.82;2.88;;;;;;;11.81;100.00;99940.56;5274619;28;20489;-72
2022/09/26 11:29:54;;;;;;;19.70;5.07;;;;;;;11.86;100.00;99932.78;5281666;28;20031;-72
2022/09/26 11:32:29;;;;;;;7.97;2.97;;;;;;;11.84;100.00;99930.28;5275187;28;20036;-72
2022/09/26 11:35:01;;;;;;;8.65;4.00;;;;;;;11.78;100.00;99931.03;5271888;28;20024;-72
2022/09/26 11:37:49;;;;;;;10.48;3.42;;;;;;;11.90;100.00;99920.63;5267924;28;20378;-72
2022/09/26 11:40:42;;;;;;;5.93;2.88;;;;;;;11.93;100.00;99922.91;5270913;28;20497;-72
2022/09/26 11:43:34;;;;;;;7.28;2.83;;;;;;;11.84;100.00;99918.69;5272988;28;20060;-72
2022/09/26 11:46:45;;;;;;;5.05;2.45;;;;;;;11.87;100.00;99905.72;5278095;28;20035;-73
2022/09/26 11:49:43;;;;;;;9.77;2.70;;;;;;;11.96;100.00;99919.81;5288559;28;20180;-73
2022/09/26 11:52:32;;;;;;;6.07;2.35;;;;;;;11.94;100.00;99921.88;5288809;28;20020;-72
2022/09/26 11:55:18;;;;;;;11.50;2.72;;;;;;;11.79;100.00;99915.75;5270007;28;20024;-73
2022/09/26 11:58:01;;;;;;;4.25;2.55;;;;;;;11.82;100.00;99912.69;5281365;28;20024;-72
2022/09/26 12:00:51;;;;;;;4.70;2.25;;;;;;;11.76;100.00;99914.28;5258631;28;20025;-73
2022/09/26 12:03:39;;;;;;;6.78;2.22;;;;;;;11.77;100.00;99918.63;5263320;28;20036;-72
2022/09/26 12:06:32;;;;;;;5.40;2.20;;;;;;;11.70;100.00;99911.53;5266205;28;20119;-72
2022/09/26 12:09:31;;;;;;;7.80;2.55;;;;;;;11.79;100.00;99908.50;5267354;28;20431;-72
2022/09/26 12:12:08;;;;;;;4.50;2.53;;;;;;;11.76;100.00;99906.22;5277360;28;20050;-72